createdAt,value
2022-12-22T00:01:28.099Z,33.92
2022-12-22T00:04:10.075Z,33.03
2022-12-22T00:06:52.097Z,35.53
2022-12-22T00:09:34.104Z,34.60
2022-12-22T00:12:15.932Z,35.28
2022-12-22T00:14:59.245Z,34.67
2022-12-22T00:17:43.312Z,34.60
2022-12-22T00:20:32.845Z,35.20
2022-12-22T00:23:18.164Z,34.47
2022-12-22T00:26:00.264Z,33.63
2022-12-22T00:28:42.269Z,35.25
2022-12-22T00:31:24.423Z,35.67
2022-12-22T00:34:06.371Z,36.30
2022-12-22T00:36:48.189Z,35.38
2022-12-22T00:39:30.209Z,34.63
2022-12-22T00:42:12.029Z,40.38
2022-12-22T00:44:57.169Z,40.78
2022-12-22T00:47:42.243Z,39.83
2022-12-22T00:50:25.327Z,38.30
2022-12-22T00:53:07.374Z,39.53
2022-12-22T00:55:49.467Z,37.63
2022-12-22T00:58:35.060Z,37.10
2022-12-22T01:01:17.136Z,37.08
2022-12-22T01:03:59.136Z,35.97
2022-12-22T01:06:45.818Z,36.45
2022-12-22T01:09:27.846Z,34.72
2022-12-22T01:12:09.639Z,34.20
2022-12-22T01:14:51.452Z,36.83
2022-12-22T01:17:33.477Z,37.50
2022-12-22T01:20:15.300Z,35.92
2022-12-22T01:22:57.583Z,38.33
2022-12-22T01:25:39.634Z,35.33
2022-12-22T01:28:21.682Z,34.65
2022-12-22T01:31:04.282Z,34.33
2022-12-22T01:33:46.280Z,34.85
2022-12-22T01:36:28.361Z,37.05
2022-12-22T01:39:10.389Z,36.38
2022-12-22T01:41:52.443Z,34.30
2022-12-22T01:44:34.458Z,34.63
2022-12-22T01:47:46.998Z,36.05
2022-12-22T01:50:47.491Z,35.95
2022-12-22T01:53:34.663Z,34.33
2022-12-22T01:56:17.471Z,33.33
2022-12-22T01:59:05.204Z,34.65
2022-12-22T02:01:48.643Z,35.25
2022-12-22T02:04:32.546Z,32.80
2022-12-22T02:07:28.194Z,31.98
2022-12-22T02:10:25.562Z,34.33
2022-12-22T02:16:13.782Z,33.35
2022-12-22T02:19:23.447Z,33.13
2022-12-22T02:22:24.912Z,32.90
2022-12-22T02:25:15.424Z,32.17
2022-12-22T02:27:59.540Z,34.30
2022-12-22T02:30:42.583Z,33.85
2022-12-22T02:33:24.675Z,33.63
2022-12-22T02:36:19.743Z,33.08
2022-12-22T02:39:09.513Z,33.30
2022-12-22T02:41:58.995Z,32.88
2022-12-22T02:45:02.017Z,31.10
2022-12-22T02:47:58.663Z,34.30
2022-12-22T02:50:48.430Z,33.42
2022-12-22T02:53:33.229Z,36.17
2022-12-22T02:56:20.128Z,32.40
2022-12-22T02:59:02.237Z,33.80
2022-12-22T03:01:45.056Z,32.85
2022-12-22T03:04:27.043Z,35.28
2022-12-22T03:07:08.843Z,37.05
2022-12-22T03:09:50.639Z,36.03
2022-12-22T03:12:32.707Z,35.83
2022-12-22T03:15:14.770Z,34.35
2022-12-22T03:17:56.518Z,33.40
2022-12-22T03:20:38.621Z,33.95
2022-12-22T03:23:21.128Z,32.30
2022-12-22T03:25:55.123Z,33.72
2022-12-22T03:28:25.752Z,33.63
2022-12-22T03:30:55.197Z,33.92
2022-12-22T03:33:22.552Z,33.08
2022-12-22T03:35:49.242Z,34.70
2022-12-22T03:38:16.224Z,33.72
2022-12-22T03:40:44.625Z,36.13
2022-12-22T03:43:28.708Z,33.33
2022-12-22T03:46:11.232Z,35.90
2022-12-22T03:48:37.890Z,36.45
2022-12-22T03:51:04.587Z,34.38
2022-12-22T03:53:31.249Z,35.78
2022-12-22T03:56:01.317Z,35.28
2022-12-22T03:58:32.457Z,35.45
2022-12-22T04:01:08.082Z,33.35
2022-12-22T04:03:34.924Z,33.38
2022-12-22T04:06:01.618Z,32.05
2022-12-22T04:08:28.378Z,34.90
2022-12-22T04:11:10.394Z,35.72
2022-12-22T04:13:37.104Z,34.60
2022-12-22T04:16:03.768Z,37.60
2022-12-22T04:18:30.533Z,36.03
2022-12-22T04:20:57.143Z,36.55
2022-12-22T04:23:27.066Z,37.10
2022-12-22T04:25:54.918Z,38.17
2022-12-22T04:28:21.641Z,36.90
2022-12-22T04:30:50.910Z,36.83
2022-12-22T04:33:18.035Z,38.92
2022-12-22T04:35:44.792Z,38.40
2022-12-22T04:38:11.409Z,37.75
2022-12-22T04:40:38.128Z,39.58
2022-12-22T04:43:04.800Z,40.33
2022-12-22T04:45:35.055Z,40.15
2022-12-22T04:48:01.858Z,41.78
2022-12-22T04:50:28.513Z,39.17
2022-12-22T04:52:55.201Z,36.30
2022-12-22T04:55:21.930Z,33.65
2022-12-22T04:57:48.613Z,35.10
2022-12-22T05:00:15.887Z,35.60
2022-12-22T05:02:42.730Z,35.58
2022-12-22T05:05:09.930Z,35.20
2022-12-22T05:07:36.832Z,36.63
2022-12-22T05:10:05.498Z,37.28
2022-12-22T05:12:47.545Z,34.03
2022-12-22T05:15:14.199Z,33.25
2022-12-22T05:17:40.818Z,33.80
2022-12-22T05:20:08.230Z,32.55
2022-12-22T05:22:34.859Z,36.13
2022-12-22T05:25:01.563Z,36.50
2022-12-22T05:27:28.545Z,34.72
2022-12-22T05:29:55.181Z,37.78
2022-12-22T05:32:21.948Z,38.08
2022-12-22T05:34:48.634Z,41.53
2022-12-22T05:37:15.706Z,42.40
2022-12-22T05:39:42.352Z,40.47
2022-12-22T05:42:09.068Z,46.47
2022-12-22T05:44:35.831Z,40.88
2022-12-22T05:47:02.550Z,42.88
2022-12-22T05:49:29.466Z,45.33
2022-12-22T05:51:56.744Z,44.35
2022-12-22T05:54:23.381Z,40.30
2022-12-22T05:56:50.117Z,42.13
2022-12-22T05:59:16.742Z,41.95
2022-12-22T06:01:43.396Z,43.13
2022-12-22T06:04:10.100Z,43.80
2022-12-22T06:06:36.765Z,42.65
2022-12-22T06:09:03.670Z,45.40
2022-12-22T06:11:30.270Z,44.35
2022-12-22T06:13:56.889Z,44.67
2022-12-22T06:16:23.984Z,39.67
2022-12-22T06:18:50.691Z,41.08
2022-12-22T06:21:17.333Z,42.28
2022-12-22T06:23:43.963Z,44.22
2022-12-22T06:26:10.944Z,52.08
2022-12-22T06:28:37.609Z,48.03
2022-12-22T06:31:04.300Z,45.85
2022-12-22T06:33:31.060Z,45.70
2022-12-22T06:35:59.415Z,46.60
2022-12-22T06:38:28.226Z,47.58
2022-12-22T06:40:54.971Z,50.30
2022-12-22T06:43:21.806Z,53.35
2022-12-22T06:45:48.418Z,50.20
2022-12-22T06:48:15.134Z,53.55
2022-12-22T06:50:41.797Z,50.10
2022-12-22T06:53:08.982Z,51.22
2022-12-22T06:55:36.700Z,50.30
2022-12-22T06:58:04.013Z,56.05
2022-12-22T07:00:30.855Z,50.58
2022-12-22T07:02:57.835Z,47.85
2022-12-22T07:05:24.704Z,47.85
2022-12-22T07:07:52.537Z,47.78
2022-12-22T07:10:39.516Z,46.25
2022-12-22T07:15:52.126Z,46.70
2022-12-22T07:18:24.407Z,44.63
2022-12-22T07:20:51.190Z,44.95
2022-12-22T07:23:17.791Z,42.97
2022-12-22T07:25:44.468Z,42.95
2022-12-22T07:28:15.058Z,43.05
2022-12-22T07:30:45.167Z,46.75
2022-12-22T07:33:11.845Z,44.85
2022-12-22T07:35:38.491Z,44.67
2022-12-22T07:38:05.154Z,42.30
2022-12-22T07:40:31.789Z,41.90
2022-12-22T07:42:59.586Z,44.50
2022-12-22T07:45:27.466Z,44.33
2022-12-22T07:48:22.593Z,41.42
2022-12-22T07:50:49.308Z,44.63
2022-12-22T07:53:15.980Z,43.67
2022-12-22T07:55:42.630Z,42.05
2022-12-22T07:58:09.276Z,39.35
2022-12-22T08:00:35.890Z,40.53
2022-12-22T08:03:02.808Z,39.88
2022-12-22T08:05:29.573Z,43.72
2022-12-22T08:07:56.198Z,42.90
2022-12-22T08:10:22.940Z,46.47
2022-12-22T08:12:49.576Z,41.50
2022-12-22T08:15:16.322Z,45.08
2022-12-22T08:17:42.965Z,45.10
2022-12-22T08:20:10.004Z,44.63
2022-12-22T08:22:36.634Z,44.95
2022-12-22T08:25:06.821Z,49.53
2022-12-22T08:27:40.514Z,47.40
2022-12-22T08:30:08.566Z,44.83
2022-12-22T08:32:38.702Z,48.63
2022-12-22T08:35:10.417Z,49.38
2022-12-22T08:37:42.203Z,48.90
2022-12-22T08:40:14.592Z,48.17
2022-12-22T08:42:42.013Z,48.30
2022-12-22T08:45:11.287Z,48.75
2022-12-22T08:47:41.306Z,49.55
2022-12-22T08:50:08.679Z,52.08
2022-12-22T08:52:35.347Z,52.72
2022-12-22T08:55:01.982Z,49.28
2022-12-22T08:57:28.820Z,48.72
2022-12-22T08:59:55.426Z,49.78
2022-12-22T09:02:22.365Z,50.05
2022-12-22T09:04:49.080Z,50.65
2022-12-22T09:07:16.138Z,53.88
2022-12-22T09:09:42.830Z,50.33
2022-12-22T09:12:09.853Z,53.38
2022-12-22T09:14:36.551Z,55.17
2022-12-22T09:17:03.293Z,55.90
2022-12-22T09:19:31.069Z,53.83
2022-12-22T09:21:57.764Z,54.15
2022-12-22T09:24:24.409Z,53.85
2022-12-22T09:26:51.026Z,55.65
2022-12-22T09:29:17.755Z,54.85
2022-12-22T09:31:44.912Z,59.78
2022-12-22T09:34:17.672Z,55.38
2022-12-22T09:36:46.059Z,63.38
2022-12-22T09:39:12.852Z,76.78
2022-12-22T09:41:52.684Z,72.00
2022-12-22T09:44:37.573Z,68.18
2022-12-22T09:47:30.299Z,71.82
2022-12-22T09:49:58.171Z,78.10
2022-12-22T09:52:40.676Z,76.47
2022-12-22T09:55:32.114Z,80.45
2022-12-22T09:57:58.852Z,76.80
2022-12-22T10:00:27.097Z,83.20
2022-12-22T10:03:27.479Z,92.78
2022-12-22T10:06:03.893Z,86.80
2022-12-22T10:08:35.134Z,93.22
2022-12-22T10:11:01.825Z,87.57
2022-12-22T10:13:28.518Z,85.57
2022-12-22T10:15:55.988Z,85.07
2022-12-22T10:18:25.448Z,77.30
2022-12-22T10:21:09.733Z,59.88
2022-12-22T10:23:40.370Z,40.47
2022-12-22T10:26:27.955Z,35.58
2022-12-22T10:29:01.811Z,34.03
2022-12-22T10:31:32.180Z,33.75
2022-12-22T10:34:15.923Z,32.13
2022-12-22T10:36:53.380Z,34.58
2022-12-22T10:39:22.200Z,35.85
2022-12-22T10:41:50.779Z,37.05
2022-12-22T10:44:17.399Z,48.35
2022-12-22T10:46:48.475Z,57.47
2022-12-22T10:49:15.081Z,61.75
2022-12-22T10:51:44.970Z,60.40
2022-12-22T10:54:25.458Z,61.35
2022-12-22T10:57:02.581Z,63.22
2022-12-22T10:59:29.359Z,62.25
2022-12-22T11:02:24.379Z,62.05
2022-12-22T11:04:52.681Z,62.67
2022-12-22T11:07:19.984Z,59.70
2022-12-22T11:09:49.381Z,59.72
2022-12-22T11:12:22.302Z,56.00
2022-12-22T11:15:11.368Z,57.20
2022-12-22T11:18:08.442Z,53.05
2022-12-22T11:20:41.502Z,51.55
2022-12-22T11:23:14.839Z,48.30
2022-12-22T11:26:06.464Z,42.78
2022-12-22T11:28:43.255Z,44.70
2022-12-22T11:31:38.454Z,41.05
2022-12-22T11:34:20.877Z,42.58
2022-12-22T11:37:17.706Z,37.78
2022-12-22T11:39:59.674Z,41.15
2022-12-22T11:42:36.576Z,40.72
2022-12-22T11:45:19.374Z,38.95
2022-12-22T11:47:56.338Z,37.25
2022-12-22T11:51:01.385Z,37.45
2022-12-22T11:53:40.383Z,35.97
2022-12-22T11:56:23.491Z,38.40
2022-12-22T11:59:03.012Z,36.55
2022-12-22T12:01:39.252Z,32.85
2022-12-22T12:04:21.335Z,30.73
2022-12-22T12:07:25.154Z,30.60
2022-12-22T12:10:17.679Z,28.98
2022-12-22T12:13:10.691Z,29.00
2022-12-22T12:15:48.045Z,27.60
2022-12-22T12:18:14.649Z,30.25
2022-12-22T12:21:00.364Z,28.45
2022-12-22T12:23:57.688Z,29.75
2022-12-22T12:29:25.822Z,29.70
2022-12-22T12:32:16.929Z,31.20
2022-12-22T12:34:49.367Z,28.30
2022-12-22T12:37:25.900Z,28.55
2022-12-22T12:40:09.547Z,24.52
2022-12-22T12:42:40.846Z,25.00
2022-12-22T12:45:38.213Z,23.40
2022-12-22T12:50:51.940Z,22.88
2022-12-22T12:53:21.604Z,23.95
2022-12-22T12:55:48.187Z,21.83
2022-12-22T12:58:37.637Z,24.17
2022-12-22T13:01:05.315Z,23.55
2022-12-22T13:04:01.734Z,24.92
2022-12-22T13:06:50.656Z,23.17
2022-12-22T13:09:49.946Z,24.58
2022-12-22T13:12:34.632Z,24.30
2022-12-22T13:15:01.917Z,23.23
2022-12-22T13:17:51.195Z,23.98
2022-12-22T13:20:25.450Z,22.52
2022-12-22T13:22:54.584Z,23.73
2022-12-22T13:25:22.832Z,23.50
2022-12-22T13:27:51.088Z,23.58
2022-12-22T13:30:20.613Z,24.30
2022-12-22T13:32:49.746Z,24.98
2022-12-22T13:35:33.703Z,22.73
2022-12-22T13:38:01.995Z,23.92
2022-12-22T13:40:32.851Z,24.83
2022-12-22T13:43:04.394Z,23.05
2022-12-22T13:45:42.561Z,22.00
2022-12-22T13:48:17.049Z,23.08
2022-12-22T13:50:48.758Z,27.05
2022-12-22T13:53:58.264Z,24.48
2022-12-22T13:56:16.639Z,22.77
2022-12-22T13:58:46.799Z,24.92
2022-12-22T14:01:18.192Z,26.63
2022-12-22T14:04:00.677Z,27.90
2022-12-22T14:06:33.019Z,29.50
2022-12-22T14:09:20.095Z,29.13
2022-12-22T14:11:53.004Z,29.08
2022-12-22T14:14:26.505Z,31.60
2022-12-22T14:16:57.536Z,31.08
2022-12-22T14:19:25.190Z,32.13
2022-12-22T14:22:03.579Z,32.85
2022-12-22T14:24:38.394Z,33.88
2022-12-22T14:27:06.777Z,30.38
2022-12-22T14:29:33.607Z,30.63
2022-12-22T14:32:03.838Z,31.60
2022-12-22T14:34:32.979Z,31.75
2022-12-22T14:37:01.578Z,31.77
2022-12-22T14:39:31.850Z,33.17
2022-12-22T14:42:01.687Z,32.42
2022-12-22T14:44:32.300Z,33.85
2022-12-22T14:47:08.098Z,30.40
2022-12-22T14:49:43.094Z,33.50
2022-12-22T14:52:23.723Z,26.17
2022-12-22T14:54:52.389Z,29.33
2022-12-22T14:57:28.890Z,30.50
2022-12-22T15:00:01.888Z,30.63
2022-12-22T15:02:40.663Z,31.30
2022-12-22T15:05:08.651Z,28.50
2022-12-22T15:10:42.075Z,31.08
2022-12-22T15:13:19.028Z,38.47
2022-12-22T15:15:45.777Z,34.47
2022-12-22T15:18:15.191Z,32.30
2022-12-22T15:20:42.120Z,32.28
2022-12-22T15:23:12.562Z,33.67
2022-12-22T15:25:39.180Z,31.10
2022-12-22T15:28:05.859Z,33.05
2022-12-22T15:30:32.680Z,28.55
2022-12-22T15:32:59.453Z,29.25
2022-12-22T15:35:31.317Z,29.85
2022-12-22T15:37:58.664Z,28.25
2022-12-22T15:40:26.777Z,29.67
2022-12-22T15:42:53.425Z,27.65
2022-12-22T15:45:22.059Z,27.55
2022-12-22T15:47:52.273Z,28.30
2022-12-22T15:50:24.994Z,32.63
2022-12-22T15:52:55.187Z,30.83
2022-12-22T15:55:22.329Z,27.48
2022-12-22T15:57:51.738Z,28.55
2022-12-22T16:00:19.114Z,27.77
2022-12-22T16:02:46.015Z,27.35
2022-12-22T16:05:14.696Z,24.25
2022-12-22T16:07:43.307Z,25.40
2022-12-22T16:10:27.233Z,24.83
2022-12-22T16:13:00.460Z,28.75
2022-12-22T16:15:33.113Z,28.98
2022-12-22T16:18:01.651Z,27.63
2022-12-22T16:20:35.790Z,25.88
2022-12-22T16:23:06.012Z,27.08
2022-12-22T16:25:37.406Z,29.38
2022-12-22T16:28:07.344Z,28.35
2022-12-22T16:30:34.755Z,27.08
2022-12-22T16:33:01.762Z,29.92
2022-12-22T16:35:30.460Z,29.63
2022-12-22T16:37:59.222Z,33.45
2022-12-22T16:40:27.685Z,33.92
2022-12-22T16:46:16.069Z,35.63
2022-12-22T16:48:49.484Z,32.10
2022-12-22T16:51:23.857Z,33.17
2022-12-22T16:53:50.708Z,39.15
2022-12-22T16:56:20.843Z,33.97
2022-12-22T16:58:48.306Z,34.50
2022-12-22T17:01:22.259Z,42.15
2022-12-22T17:03:49.548Z,41.00
2022-12-22T17:06:17.244Z,37.67
2022-12-22T17:08:44.868Z,34.95
2022-12-22T17:11:19.859Z,32.60
2022-12-22T17:13:46.741Z,29.73
2022-12-22T17:16:23.221Z,32.10
2022-12-22T17:18:50.107Z,32.65
2022-12-22T17:21:19.156Z,31.27
2022-12-22T17:23:50.385Z,30.95
2022-12-22T17:26:21.460Z,28.98
2022-12-22T17:28:49.031Z,28.17
2022-12-22T17:31:19.450Z,30.15
2022-12-22T17:33:46.615Z,25.25
2022-12-22T17:36:20.575Z,26.63
2022-12-22T17:38:47.310Z,26.92
2022-12-22T17:41:16.342Z,27.08
2022-12-22T17:43:43.180Z,25.17
2022-12-22T17:46:15.273Z,23.20
2022-12-22T17:48:42.126Z,25.70
2022-12-22T17:51:20.719Z,25.85
2022-12-22T17:53:47.802Z,23.13
2022-12-22T17:56:18.096Z,23.65
2022-12-22T17:58:45.503Z,25.20
2022-12-22T18:01:18.937Z,23.02
2022-12-22T18:03:45.707Z,21.15
2022-12-22T18:06:17.859Z,20.42
2022-12-22T18:08:46.156Z,24.67
2022-12-22T18:11:13.286Z,20.65
2022-12-22T18:13:40.361Z,26.35
2022-12-22T18:16:09.147Z,25.80
2022-12-22T18:18:36.465Z,21.38
2022-12-22T18:21:06.933Z,20.35
2022-12-22T18:23:36.885Z,17.95
2022-12-22T18:26:06.625Z,18.83
2022-12-22T18:28:33.271Z,18.45
2022-12-22T18:31:00.001Z,20.00
2022-12-22T18:33:26.974Z,23.65
2022-12-22T18:35:53.716Z,22.70
2022-12-22T18:38:27.170Z,23.67
2022-12-22T18:40:54.113Z,23.90
2022-12-22T18:43:21.229Z,23.90
2022-12-22T18:45:48.159Z,24.10
2022-12-22T18:48:15.059Z,22.58
2022-12-22T18:50:41.901Z,22.88
2022-12-22T18:53:17.258Z,22.75
2022-12-22T18:55:45.681Z,24.15
2022-12-22T18:58:15.262Z,23.20
2022-12-22T19:00:42.742Z,22.63
2022-12-22T19:03:18.503Z,23.00
2022-12-22T19:05:45.888Z,21.20
2022-12-22T19:08:16.043Z,22.25
2022-12-22T19:10:48.179Z,22.42
2022-12-22T19:13:21.474Z,23.45
2022-12-22T19:15:50.102Z,25.05
2022-12-22T19:18:26.002Z,24.10
2022-12-22T19:20:53.998Z,23.98
2022-12-22T19:23:22.453Z,24.75
2022-12-22T19:25:52.719Z,25.48
2022-12-22T19:28:32.013Z,25.63
2022-12-22T19:30:59.164Z,24.85
2022-12-22T19:33:36.224Z,28.23
2022-12-22T19:36:05.419Z,29.25
2022-12-22T19:38:32.994Z,32.80
2022-12-22T19:41:03.235Z,26.73
2022-12-22T19:43:30.811Z,25.50
2022-12-22T19:45:57.899Z,26.92
2022-12-22T19:48:26.922Z,27.10
2022-12-22T19:50:54.161Z,25.85
2022-12-22T19:53:21.412Z,25.35
2022-12-22T19:55:52.469Z,23.35
2022-12-22T19:58:24.228Z,23.08
2022-12-22T20:00:51.041Z,22.63
2022-12-22T20:03:21.875Z,21.20
2022-12-22T20:05:48.909Z,21.65
2022-12-22T20:08:16.203Z,22.40
2022-12-22T20:10:43.289Z,21.63
2022-12-22T20:13:16.297Z,20.33
2022-12-22T20:15:43.578Z,20.40
2022-12-22T20:18:15.171Z,20.60
2022-12-22T20:20:42.555Z,23.33
2022-12-22T20:23:18.682Z,22.98
2022-12-22T20:25:56.990Z,21.00
2022-12-22T20:28:28.842Z,20.35
2022-12-22T20:30:55.952Z,21.88
2022-12-22T20:33:24.837Z,21.85
2022-12-22T20:35:53.248Z,22.30
2022-12-22T20:38:28.719Z,22.48
2022-12-22T20:40:55.351Z,23.10
2022-12-22T20:43:24.381Z,21.42
2022-12-22T20:45:54.923Z,20.73
2022-12-22T20:48:36.239Z,22.73
2022-12-22T20:51:08.715Z,21.65
2022-12-22T20:53:35.325Z,19.75
2022-12-22T20:56:02.408Z,20.58
2022-12-22T20:58:35.153Z,20.20
2022-12-22T21:01:02.664Z,18.45
2022-12-22T21:03:29.640Z,17.42
2022-12-22T21:05:56.389Z,18.50
2022-12-22T21:08:26.036Z,17.45
2022-12-22T21:10:55.118Z,16.70
2022-12-22T21:13:22.083Z,16.42
2022-12-22T21:15:51.141Z,16.67
2022-12-22T21:18:22.261Z,19.52
2022-12-22T21:20:50.393Z,19.05
2022-12-22T21:23:17.301Z,19.85
2022-12-22T21:25:46.974Z,20.40
2022-12-22T21:28:27.223Z,18.75
2022-12-22T21:30:53.910Z,17.50
2022-12-22T21:33:20.709Z,16.65
2022-12-22T21:35:47.465Z,16.55
2022-12-22T21:38:17.847Z,15.73
2022-12-22T21:40:46.922Z,13.63
2022-12-22T21:43:15.479Z,12.25
2022-12-22T21:45:44.287Z,12.77
2022-12-22T21:48:13.003Z,14.50
2022-12-22T21:50:40.196Z,16.13
2022-12-22T21:53:06.870Z,15.35
2022-12-22T21:55:36.727Z,16.92
2022-12-22T21:58:05.100Z,16.77
2022-12-22T22:00:32.753Z,15.20
2022-12-22T22:03:01.966Z,15.50
2022-12-22T22:05:30.230Z,15.05
2022-12-22T22:07:58.348Z,13.98
2022-12-22T22:10:31.478Z,13.50
2022-12-22T22:12:58.210Z,13.65
2022-12-22T22:15:26.349Z,13.07
2022-12-22T22:17:53.406Z,12.80
2022-12-22T22:20:23.656Z,11.75
2022-12-22T22:22:52.094Z,13.05
2022-12-22T22:25:19.776Z,10.90
2022-12-22T22:27:48.095Z,11.20
2022-12-22T22:30:21.058Z,11.43
2022-12-22T22:32:48.951Z,10.63
2022-12-22T22:35:18.414Z,10.25
2022-12-22T22:37:46.404Z,10.63
2022-12-22T22:40:14.883Z,9.88
2022-12-22T22:42:41.687Z,9.65
2022-12-22T22:45:10.682Z,9.27
2022-12-22T22:47:38.445Z,9.13
2022-12-22T22:50:06.937Z,9.55
2022-12-22T22:52:34.151Z,8.80
2022-12-22T22:55:01.153Z,9.30
2022-12-22T22:57:28.166Z,11.00
2022-12-22T22:59:54.820Z,11.38
2022-12-22T23:02:21.611Z,10.48
2022-12-22T23:04:48.543Z,11.02
2022-12-22T23:07:15.185Z,11.70
2022-12-22T23:09:42.108Z,9.65
2022-12-22T23:12:08.824Z,11.63
2022-12-22T23:14:35.474Z,14.63
2022-12-22T23:17:02.189Z,13.38
2022-12-22T23:19:30.007Z,14.82
2022-12-22T23:21:57.213Z,14.07
2022-12-22T23:24:23.900Z,13.40
2022-12-22T23:26:50.562Z,14.57
2022-12-22T23:29:17.328Z,17.17
2022-12-22T23:31:44.204Z,14.85
2022-12-22T23:34:12.418Z,14.45
2022-12-22T23:36:39.120Z,12.02
2022-12-22T23:39:05.975Z,12.18
2022-12-22T23:41:33.116Z,13.98
2022-12-22T23:43:59.857Z,14.38
2022-12-22T23:46:26.540Z,14.60
2022-12-22T23:48:55.774Z,14.55
2022-12-22T23:51:24.870Z,13.32
2022-12-22T23:53:51.523Z,13.18
2022-12-22T23:56:18.516Z,14.55
2022-12-22T23:58:48.217Z,16.02
